Decoded Metar for KITR (BURLINGTON in CO, USA) (IATA:ITR) | Meteo·Mobile Aviation Weather
aviador You're here:

KITR Decoded Metar

BURLINGTON in CO, USA
Report Time2019-05-22 05:53:00
UTC Time2019-05-22 06:35:46
Flight Rules vfr VFR
Wind290° at 15 kt
W.Decomp.*RWY 33: 9.6 kt HW 11.5 kt LCW
Visibility9999 m
Phenomena:N/A
Clouds:N/A
Expected CloudBase > 800 ft AGL from Temp-Dew spread
CeilingNone
Temp02°C (ISA -5)
Dew Point00°C (87% RH)
AAT-5.4°C
QNH1001 hPa
Density Alt4,140 ft
Elevation4,196 ft
Report Wrong Elevation
Raw Report
KITR 220553Z AUTO 29015KT 10SM CLR 02/00 A2957 RMK AO2 SLP016
T00170000 10039 20017 51019=

Extra information for KITR:More info

Metar Taf Metar & Taf Last 4 Metars F.Rules Stats Wind Profile Meteogram Temp Stats Airport Information Weather charts Add Link Nearby VenuesMetar ALERT Operation Metar Decoded Social comments

AIRNAV info for KITR